sensor_id;sensor_type;location;lat;lon;timestamp;P1;durP1;ratioP1;P2;durP2;ratioP2
75737;SDS011;64356;45.638;13.764;2022-10-22T00:01:59;9.60;;;3.35;;
75737;SDS011;64356;45.638;13.764;2022-10-22T00:04:24;10.93;;;3.55;;
75737;SDS011;64356;45.638;13.764;2022-10-22T00:06:50;5.57;;;3.13;;
75737;SDS011;64356;45.638;13.764;2022-10-22T00:09:16;4.65;;;2.95;;
75737;SDS011;64356;45.638;13.764;2022-10-22T00:11:41;8.55;;;3.25;;
75737;SDS011;64356;45.638;13.764;2022-10-22T00:14:08;4.90;;;3.30;;
75737;SDS011;64356;45.638;13.764;2022-10-22T00:16:34;6.93;;;3.63;;
75737;SDS011;64356;45.638;13.764;2022-10-22T00:18:59;10.20;;;3.63;;
75737;SDS011;64356;45.638;13.764;2022-10-22T00:21:25;7.90;;;3.15;;
75737;SDS011;64356;45.638;13.764;2022-10-22T00:23:53;5.45;;;3.10;;
75737;SDS011;64356;45.638;13.764;2022-10-22T00:26:20;4.13;;;2.67;;
75737;SDS011;64356;45.638;13.764;2022-10-22T00:28:46;5.70;;;3.08;;
75737;SDS011;64356;45.638;13.764;2022-10-22T00:31:12;8.15;;;3.38;;
75737;SDS011;64356;45.638;13.764;2022-10-22T00:33:39;4.55;;;3.10;;
75737;SDS011;64356;45.638;13.764;2022-10-22T00:36:05;8.15;;;3.30;;
75737;SDS011;64356;45.638;13.764;2022-10-22T00:38:31;7.45;;;4.13;;
75737;SDS011;64356;45.638;13.764;2022-10-22T00:40:57;7.60;;;3.00;;
75737;SDS011;64356;45.638;13.764;2022-10-22T00:43:23;7.80;;;3.28;;
75737;SDS011;64356;45.638;13.764;2022-10-22T00:45:49;4.28;;;2.90;;
75737;SDS011;64356;45.638;13.764;2022-10-22T00:48:22;7.53;;;3.10;;
75737;SDS011;64356;45.638;13.764;2022-10-22T00:50:58;7.85;;;3.17;;
75737;SDS011;64356;45.638;13.764;2022-10-22T00:53:36;8.65;;;3.67;;
75737;SDS011;64356;45.638;13.764;2022-10-22T00:56:06;7.07;;;3.38;;
75737;SDS011;64356;45.638;13.764;2022-10-22T00:58:34;5.30;;;3.63;;
75737;SDS011;64356;45.638;13.764;2022-10-22T01:01:01;4.35;;;3.00;;
75737;SDS011;64356;45.638;13.764;2022-10-22T01:03:30;8.07;;;3.45;;
75737;SDS011;64356;45.638;13.764;2022-10-22T01:05:57;8.65;;;4.18;;
75737;SDS011;64356;45.638;13.764;2022-10-22T01:22:37;7.18;;;3.03;;
75737;SDS011;64356;45.638;13.764;2022-10-22T01:25:16;8.45;;;3.20;;
75737;SDS011;64356;45.638;13.764;2022-10-22T01:30:40;4.40;;;3.15;;
75737;SDS011;64356;45.638;13.764;2022-10-22T01:33:09;7.53;;;3.33;;
75737;SDS011;64356;45.638;13.764;2022-10-22T01:35:38;7.10;;;3.47;;
75737;SDS011;64356;45.638;13.764;2022-10-22T01:38:08;5.53;;;3.00;;
75737;SDS011;64356;45.638;13.764;2022-10-22T01:40:39;7.75;;;3.53;;
75737;SDS011;64356;45.638;13.764;2022-10-22T01:43:06;6.93;;;3.75;;
75737;SDS011;64356;45.638;13.764;2022-10-22T01:45:34;4.35;;;3.30;;
75737;SDS011;64356;45.638;13.764;2022-10-22T01:56:26;4.75;;;3.33;;
75737;SDS011;64356;45.638;13.764;2022-10-22T01:59:16;6.00;;;3.28;;
75737;SDS011;64356;45.638;13.764;2022-10-22T02:01:58;7.65;;;3.70;;
75737;SDS011;64356;45.638;13.764;2022-10-22T02:07:13;7.15;;;3.38;;
75737;SDS011;64356;45.638;13.764;2022-10-22T02:09:42;5.43;;;3.28;;
75737;SDS011;64356;45.638;13.764;2022-10-22T02:12:10;6.68;;;3.45;;
75737;SDS011;64356;45.638;13.764;2022-10-22T02:14:38;7.13;;;3.50;;
75737;SDS011;64356;45.638;13.764;2022-10-22T02:17:07;5.38;;;3.10;;
75737;SDS011;64356;45.638;13.764;2022-10-22T02:19:38;5.82;;;3.05;;
75737;SDS011;64356;45.638;13.764;2022-10-22T02:22:10;5.90;;;3.42;;
75737;SDS011;64356;45.638;13.764;2022-10-22T02:24:36;6.97;;;3.38;;
75737;SDS011;64356;45.638;13.764;2022-10-22T02:27:19;3.72;;;3.05;;
75737;SDS011;64356;45.638;13.764;2022-10-22T02:29:52;6.70;;;3.47;;
75737;SDS011;64356;45.638;13.764;2022-10-22T02:32:48;6.00;;;3.95;;
75737;SDS011;64356;45.638;13.764;2022-10-22T02:35:22;7.57;;;3.30;;
75737;SDS011;64356;45.638;13.764;2022-10-22T02:37:50;6.25;;;3.30;;
75737;SDS011;64356;45.638;13.764;2022-10-22T02:40:18;5.28;;;3.15;;
75737;SDS011;64356;45.638;13.764;2022-10-22T02:42:45;6.57;;;4.03;;
75737;SDS011;64356;45.638;13.764;2022-10-22T02:45:13;6.25;;;3.60;;
75737;SDS011;64356;45.638;13.764;2022-10-22T02:47:40;5.82;;;3.50;;
75737;SDS011;64356;45.638;13.764;2022-10-22T02:50:06;5.30;;;3.45;;
75737;SDS011;64356;45.638;13.764;2022-10-22T02:52:31;4.18;;;2.90;;
75737;SDS011;64356;45.638;13.764;2022-10-22T02:54:57;6.15;;;3.53;;
75737;SDS011;64356;45.638;13.764;2022-10-22T02:57:23;7.43;;;4.38;;
75737;SDS011;64356;45.638;13.764;2022-10-22T02:59:48;6.20;;;3.30;;
75737;SDS011;64356;45.638;13.764;2022-10-22T03:02:14;7.32;;;3.78;;
75737;SDS011;64356;45.638;13.764;2022-10-22T03:04:40;6.30;;;3.50;;
75737;SDS011;64356;45.638;13.764;2022-10-22T03:07:06;7.22;;;3.60;;
75737;SDS011;64356;45.638;13.764;2022-10-22T03:09:31;6.03;;;3.47;;
75737;SDS011;64356;45.638;13.764;2022-10-22T03:11:57;7.72;;;3.55;;
75737;SDS011;64356;45.638;13.764;2022-10-22T03:14:23;7.50;;;3.88;;
75737;SDS011;64356;45.638;13.764;2022-10-22T03:16:48;5.60;;;3.75;;
75737;SDS011;64356;45.638;13.764;2022-10-22T03:19:14;6.35;;;3.65;;
75737;SDS011;64356;45.638;13.764;2022-10-22T03:21:43;8.00;;;3.90;;
75737;SDS011;64356;45.638;13.764;2022-10-22T03:24:18;6.55;;;3.53;;
75737;SDS011;64356;45.638;13.764;2022-10-22T03:26:50;5.78;;;3.58;;
75737;SDS011;64356;45.638;13.764;2022-10-22T03:29:16;9.40;;;4.43;;
75737;SDS011;64356;45.638;13.764;2022-10-22T03:31:45;7.00;;;4.15;;
75737;SDS011;64356;45.638;13.764;2022-10-22T03:34:10;7.30;;;3.83;;
75737;SDS011;64356;45.638;13.764;2022-10-22T03:36:37;5.32;;;3.92;;
75737;SDS011;64356;45.638;13.764;2022-10-22T03:39:04;6.43;;;3.75;;
75737;SDS011;64356;45.638;13.764;2022-10-22T03:41:30;10.90;;;4.20;;
75737;SDS011;64356;45.638;13.764;2022-10-22T03:43:58;7.25;;;3.63;;
75737;SDS011;64356;45.638;13.764;2022-10-22T03:46:26;9.13;;;3.65;;
75737;SDS011;64356;45.638;13.764;2022-10-22T03:48:52;8.77;;;3.75;;
75737;SDS011;64356;45.638;13.764;2022-10-22T03:51:17;12.05;;;3.90;;
75737;SDS011;64356;45.638;13.764;2022-10-22T03:53:43;6.25;;;4.28;;
75737;SDS011;64356;45.638;13.764;2022-10-22T03:56:09;8.38;;;3.70;;
75737;SDS011;64356;45.638;13.764;2022-10-22T03:58:36;7.10;;;3.92;;
75737;SDS011;64356;45.638;13.764;2022-10-22T04:01:06;7.97;;;4.10;;
75737;SDS011;64356;45.638;13.764;2022-10-22T04:03:33;8.23;;;4.25;;
75737;SDS011;64356;45.638;13.764;2022-10-22T04:06:00;6.28;;;4.00;;
75737;SDS011;64356;45.638;13.764;2022-10-22T04:08:30;10.57;;;3.83;;
75737;SDS011;64356;45.638;13.764;2022-10-22T04:10:55;8.20;;;4.50;;
75737;SDS011;64356;45.638;13.764;2022-10-22T04:13:21;6.95;;;4.20;;
75737;SDS011;64356;45.638;13.764;2022-10-22T04:15:46;6.85;;;4.68;;
75737;SDS011;64356;45.638;13.764;2022-10-22T04:18:12;8.52;;;4.28;;
75737;SDS011;64356;45.638;13.764;2022-10-22T04:20:38;7.68;;;4.20;;
75737;SDS011;64356;45.638;13.764;2022-10-22T04:23:05;8.35;;;4.65;;
75737;SDS011;64356;45.638;13.764;2022-10-22T04:25:31;7.90;;;4.57;;
75737;SDS011;64356;45.638;13.764;2022-10-22T04:27:56;5.57;;;4.10;;
75737;SDS011;64356;45.638;13.764;2022-10-22T04:30:22;8.40;;;4.30;;
75737;SDS011;64356;45.638;13.764;2022-10-22T04:32:48;12.75;;;5.13;;
75737;SDS011;64356;45.638;13.764;2022-10-22T04:35:13;10.30;;;4.78;;
75737;SDS011;64356;45.638;13.764;2022-10-22T04:37:39;6.53;;;4.50;;
75737;SDS011;64356;45.638;13.764;2022-10-22T04:40:05;10.70;;;4.53;;
75737;SDS011;64356;45.638;13.764;2022-10-22T04:42:31;9.20;;;5.43;;
75737;SDS011;64356;45.638;13.764;2022-10-22T04:44:57;7.55;;;4.45;;
75737;SDS011;64356;45.638;13.764;2022-10-22T04:47:22;8.07;;;4.63;;
75737;SDS011;64356;45.638;13.764;2022-10-22T04:49:48;7.10;;;4.63;;
75737;SDS011;64356;45.638;13.764;2022-10-22T04:52:13;7.32;;;4.38;;
75737;SDS011;64356;45.638;13.764;2022-10-22T04:54:39;9.38;;;4.85;;
75737;SDS011;64356;45.638;13.764;2022-10-22T04:57:05;9.50;;;4.93;;
75737;SDS011;64356;45.638;13.764;2022-10-22T04:59:30;9.80;;;4.50;;
75737;SDS011;64356;45.638;13.764;2022-10-22T05:01:56;13.25;;;4.75;;
75737;SDS011;64356;45.638;13.764;2022-10-22T05:04:21;9.07;;;4.50;;
75737;SDS011;64356;45.638;13.764;2022-10-22T05:06:47;6.07;;;4.45;;
75737;SDS011;64356;45.638;13.764;2022-10-22T05:09:14;8.70;;;4.45;;
75737;SDS011;64356;45.638;13.764;2022-10-22T05:11:43;7.38;;;4.80;;
75737;SDS011;64356;45.638;13.764;2022-10-22T05:14:13;7.75;;;4.45;;
75737;SDS011;64356;45.638;13.764;2022-10-22T05:16:49;10.27;;;5.50;;
75737;SDS011;64356;45.638;13.764;2022-10-22T05:19:19;9.70;;;5.32;;
75737;SDS011;64356;45.638;13.764;2022-10-22T05:21:50;7.30;;;4.43;;
75737;SDS011;64356;45.638;13.764;2022-10-22T05:24:17;11.93;;;5.55;;
75737;SDS011;64356;45.638;13.764;2022-10-22T05:26:43;8.45;;;4.75;;
75737;SDS011;64356;45.638;13.764;2022-10-22T05:29:09;8.32;;;4.70;;
75737;SDS011;64356;45.638;13.764;2022-10-22T05:31:34;7.32;;;4.10;;
75737;SDS011;64356;45.638;13.764;2022-10-22T05:34:00;10.38;;;5.05;;
75737;SDS011;64356;45.638;13.764;2022-10-22T05:36:26;10.82;;;5.45;;
75737;SDS011;64356;45.638;13.764;2022-10-22T05:38:52;7.75;;;4.80;;
75737;SDS011;64356;45.638;13.764;2022-10-22T05:41:19;14.98;;;4.85;;
75737;SDS011;64356;45.638;13.764;2022-10-22T05:46:19;7.90;;;4.13;;
75737;SDS011;64356;45.638;13.764;2022-10-22T05:48:49;6.53;;;4.65;;
75737;SDS011;64356;45.638;13.764;2022-10-22T05:51:15;6.70;;;4.60;;
75737;SDS011;64356;45.638;13.764;2022-10-22T05:53:42;10.50;;;4.32;;
75737;SDS011;64356;45.638;13.764;2022-10-22T05:56:10;8.63;;;4.82;;
75737;SDS011;64356;45.638;13.764;2022-10-22T05:58:37;6.50;;;4.45;;
75737;SDS011;64356;45.638;13.764;2022-10-22T06:01:04;8.15;;;4.93;;
75737;SDS011;64356;45.638;13.764;2022-10-22T06:03:31;5.18;;;4.38;;
75737;SDS011;64356;45.638;13.764;2022-10-22T06:06:01;8.27;;;4.57;;
75737;SDS011;64356;45.638;13.764;2022-10-22T06:08:29;7.57;;;5.07;;
75737;SDS011;64356;45.638;13.764;2022-10-22T06:10:55;8.20;;;4.80;;
75737;SDS011;64356;45.638;13.764;2022-10-22T06:13:21;5.47;;;4.28;;
75737;SDS011;64356;45.638;13.764;2022-10-22T06:15:47;10.27;;;4.75;;
75737;SDS011;64356;45.638;13.764;2022-10-22T06:18:14;7.10;;;3.95;;
75737;SDS011;64356;45.638;13.764;2022-10-22T06:20:40;16.88;;;5.38;;
75737;SDS011;64356;45.638;13.764;2022-10-22T06:23:07;13.20;;;4.80;;
75737;SDS011;64356;45.638;13.764;2022-10-22T06:25:33;9.63;;;4.90;;
75737;SDS011;64356;45.638;13.764;2022-10-22T06:27:58;7.95;;;4.85;;
75737;SDS011;64356;45.638;13.764;2022-10-22T06:30:24;11.52;;;4.50;;
75737;SDS011;64356;45.638;13.764;2022-10-22T06:32:50;8.13;;;4.85;;
75737;SDS011;64356;45.638;13.764;2022-10-22T06:35:15;9.50;;;4.85;;
75737;SDS011;64356;45.638;13.764;2022-10-22T06:37:41;9.82;;;5.00;;
75737;SDS011;64356;45.638;13.764;2022-10-22T06:40:07;11.93;;;5.53;;
75737;SDS011;64356;45.638;13.764;2022-10-22T06:42:33;6.13;;;4.93;;
75737;SDS011;64356;45.638;13.764;2022-10-22T06:44:58;8.20;;;4.82;;
75737;SDS011;64356;45.638;13.764;2022-10-22T06:47:24;10.80;;;4.90;;
75737;SDS011;64356;45.638;13.764;2022-10-22T06:49:50;13.70;;;5.05;;
75737;SDS011;64356;45.638;13.764;2022-10-22T06:52:15;11.70;;;4.88;;
75737;SDS011;64356;45.638;13.764;2022-10-22T06:54:41;13.88;;;5.82;;
75737;SDS011;64356;45.638;13.764;2022-10-22T06:57:07;10.65;;;5.97;;
75737;SDS011;64356;45.638;13.764;2022-10-22T06:59:32;17.05;;;5.80;;
75737;SDS011;64356;45.638;13.764;2022-10-22T07:01:58;16.50;;;6.13;;
75737;SDS011;64356;45.638;13.764;2022-10-22T07:04:24;15.90;;;7.10;;
75737;SDS011;64356;45.638;13.764;2022-10-22T07:06:49;13.57;;;6.28;;
75737;SDS011;64356;45.638;13.764;2022-10-22T07:09:15;19.15;;;6.70;;
75737;SDS011;64356;45.638;13.764;2022-10-22T07:11:42;15.65;;;6.25;;
75737;SDS011;64356;45.638;13.764;2022-10-22T07:14:09;14.15;;;6.03;;
75737;SDS011;64356;45.638;13.764;2022-10-22T07:16:36;28.30;;;6.50;;
75737;SDS011;64356;45.638;13.764;2022-10-22T07:19:02;20.63;;;6.10;;
75737;SDS011;64356;45.638;13.764;2022-10-22T07:21:29;17.98;;;6.13;;
75737;SDS011;64356;45.638;13.764;2022-10-22T07:23:56;22.98;;;7.85;;
75737;SDS011;64356;45.638;13.764;2022-10-22T07:26:23;16.13;;;6.03;;
75737;SDS011;64356;45.638;13.764;2022-10-22T07:28:49;20.80;;;6.28;;
75737;SDS011;64356;45.638;13.764;2022-10-22T07:31:16;14.88;;;6.47;;
75737;SDS011;64356;45.638;13.764;2022-10-22T07:33:42;12.15;;;5.68;;
75737;SDS011;64356;45.638;13.764;2022-10-22T07:36:09;15.40;;;6.63;;
75737;SDS011;64356;45.638;13.764;2022-10-22T07:38:41;23.02;;;7.20;;
75737;SDS011;64356;45.638;13.764;2022-10-22T07:41:11;15.38;;;6.75;;
75737;SDS011;64356;45.638;13.764;2022-10-22T07:43:37;15.63;;;7.13;;
75737;SDS011;64356;45.638;13.764;2022-10-22T07:46:02;17.25;;;6.85;;
75737;SDS011;64356;45.638;13.764;2022-10-22T07:48:28;14.63;;;6.38;;
75737;SDS011;64356;45.638;13.764;2022-10-22T07:50:54;13.57;;;6.30;;
75737;SDS011;64356;45.638;13.764;2022-10-22T07:53:20;9.65;;;5.95;;
75737;SDS011;64356;45.638;13.764;2022-10-22T07:55:47;14.23;;;6.25;;
75737;SDS011;64356;45.638;13.764;2022-10-22T07:58:13;15.70;;;6.93;;
75737;SDS011;64356;45.638;13.764;2022-10-22T08:00:39;11.60;;;6.32;;
75737;SDS011;64356;45.638;13.764;2022-10-22T08:03:05;16.63;;;6.55;;
75737;SDS011;64356;45.638;13.764;2022-10-22T08:05:30;19.42;;;6.90;;
75737;SDS011;64356;45.638;13.764;2022-10-22T08:07:56;19.05;;;7.05;;
75737;SDS011;64356;45.638;13.764;2022-10-22T08:10:22;19.60;;;7.35;;
75737;SDS011;64356;45.638;13.764;2022-10-22T08:12:47;15.35;;;6.70;;
75737;SDS011;64356;45.638;13.764;2022-10-22T08:15:13;25.40;;;7.70;;
75737;SDS011;64356;45.638;13.764;2022-10-22T08:17:38;23.83;;;7.72;;
75737;SDS011;64356;45.638;13.764;2022-10-22T08:20:04;29.40;;;7.15;;
75737;SDS011;64356;45.638;13.764;2022-10-22T08:22:30;42.00;;;8.77;;
75737;SDS011;64356;45.638;13.764;2022-10-22T08:24:56;28.38;;;7.57;;
75737;SDS011;64356;45.638;13.764;2022-10-22T08:27:21;23.17;;;7.78;;
75737;SDS011;64356;45.638;13.764;2022-10-22T08:29:47;17.95;;;8.30;;
75737;SDS011;64356;45.638;13.764;2022-10-22T08:32:13;19.00;;;7.55;;
75737;SDS011;64356;45.638;13.764;2022-10-22T08:34:39;18.63;;;7.38;;
75737;SDS011;64356;45.638;13.764;2022-10-22T08:37:04;16.00;;;6.80;;
75737;SDS011;64356;45.638;13.764;2022-10-22T08:39:32;15.45;;;7.30;;
75737;SDS011;64356;45.638;13.764;2022-10-22T08:42:04;22.63;;;7.57;;
75737;SDS011;64356;45.638;13.764;2022-10-22T08:44:54;17.17;;;7.40;;
75737;SDS011;64356;45.638;13.764;2022-10-22T08:47:38;19.25;;;7.25;;
75737;SDS011;64356;45.638;13.764;2022-10-22T08:53:01;14.50;;;6.63;;
75737;SDS011;64356;45.638;13.764;2022-10-22T08:55:30;14.13;;;7.03;;
75737;SDS011;64356;45.638;13.764;2022-10-22T09:08:13;34.00;;;17.27;;
75737;SDS011;64356;45.638;13.764;2022-10-22T09:10:45;33.53;;;17.83;;
75737;SDS011;64356;45.638;13.764;2022-10-22T09:13:15;51.40;;;28.38;;
75737;SDS011;64356;45.638;13.764;2022-10-22T09:15:45;32.17;;;16.92;;
75737;SDS011;64356;45.638;13.764;2022-10-22T09:26:29;35.35;;;14.15;;
75737;SDS011;64356;45.638;13.764;2022-10-22T09:28:58;31.10;;;14.10;;
75737;SDS011;64356;45.638;13.764;2022-10-22T09:31:25;23.98;;;11.25;;
75737;SDS011;64356;45.638;13.764;2022-10-22T09:33:54;31.15;;;12.30;;
75737;SDS011;64356;45.638;13.764;2022-10-22T09:36:21;23.65;;;9.40;;
75737;SDS011;64356;45.638;13.764;2022-10-22T09:38:48;21.02;;;9.07;;
75737;SDS011;64356;45.638;13.764;2022-10-22T09:41:17;26.92;;;8.85;;
75737;SDS011;64356;45.638;13.764;2022-10-22T09:43:47;21.52;;;8.65;;
75737;SDS011;64356;45.638;13.764;2022-10-22T09:46:15;30.27;;;9.57;;
75737;SDS011;64356;45.638;13.764;2022-10-22T09:48:47;21.50;;;7.97;;
75737;SDS011;64356;45.638;13.764;2022-10-22T09:53:56;39.15;;;9.38;;
75737;SDS011;64356;45.638;13.764;2022-10-22T09:58:56;26.80;;;8.38;;
75737;SDS011;64356;45.638;13.764;2022-10-22T10:01:24;29.80;;;8.55;;
75737;SDS011;64356;45.638;13.764;2022-10-22T10:03:52;19.33;;;8.52;;
75737;SDS011;64356;45.638;13.764;2022-10-22T10:06:18;24.15;;;9.55;;
75737;SDS011;64356;45.638;13.764;2022-10-22T10:08:45;23.15;;;8.57;;
75737;SDS011;64356;45.638;13.764;2022-10-22T10:13:49;24.13;;;8.93;;
75737;SDS011;64356;45.638;13.764;2022-10-22T10:24:57;18.70;;;7.63;;
75737;SDS011;64356;45.638;13.764;2022-10-22T10:27:45;17.10;;;7.78;;
75737;SDS011;64356;45.638;13.764;2022-10-22T10:30:17;17.05;;;8.13;;
75737;SDS011;64356;45.638;13.764;2022-10-22T10:43:54;15.38;;;7.50;;
75737;SDS011;64356;45.638;13.764;2022-10-22T10:49:08;21.13;;;7.68;;
75737;SDS011;64356;45.638;13.764;2022-10-22T10:57:42;19.58;;;7.60;;
75737;SDS011;64356;45.638;13.764;2022-10-22T11:00:30;22.92;;;7.68;;
75737;SDS011;64356;45.638;13.764;2022-10-22T11:03:17;18.35;;;7.13;;
75737;SDS011;64356;45.638;13.764;2022-10-22T11:06:09;25.63;;;7.97;;
75737;SDS011;64356;45.638;13.764;2022-10-22T11:08:53;20.45;;;8.65;;
75737;SDS011;64356;45.638;13.764;2022-10-22T11:11:50;21.30;;;8.38;;
75737;SDS011;64356;45.638;13.764;2022-10-22T11:14:28;26.65;;;8.68;;
75737;SDS011;64356;45.638;13.764;2022-10-22T11:17:03;26.52;;;7.70;;
75737;SDS011;64356;45.638;13.764;2022-10-22T11:19:44;35.50;;;8.35;;
75737;SDS011;64356;45.638;13.764;2022-10-22T11:22:31;17.00;;;6.70;;
75737;SDS011;64356;45.638;13.764;2022-10-22T11:25:26;17.50;;;7.95;;
75737;SDS011;64356;45.638;13.764;2022-10-22T11:30:52;26.40;;;7.15;;
75737;SDS011;64356;45.638;13.764;2022-10-22T11:33:23;22.02;;;7.95;;
75737;SDS011;64356;45.638;13.764;2022-10-22T11:35:56;26.38;;;8.05;;
75737;SDS011;64356;45.638;13.764;2022-10-22T11:38:25;32.22;;;7.82;;
75737;SDS011;64356;45.638;13.764;2022-10-22T11:41:02;26.67;;;9.32;;
75737;SDS011;64356;45.638;13.764;2022-10-22T11:46:02;29.92;;;9.73;;
75737;SDS011;64356;45.638;13.764;2022-10-22T11:51:34;36.03;;;10.30;;
75737;SDS011;64356;45.638;13.764;2022-10-22T11:54:07;26.08;;;8.63;;
75737;SDS011;64356;45.638;13.764;2022-10-22T11:59:49;23.52;;;8.48;;
75737;SDS011;64356;45.638;13.764;2022-10-22T12:04:54;16.70;;;6.47;;
75737;SDS011;64356;45.638;13.764;2022-10-22T12:07:52;23.17;;;8.15;;
75737;SDS011;64356;45.638;13.764;2022-10-22T12:10:22;14.45;;;7.00;;
75737;SDS011;64356;45.638;13.764;2022-10-22T12:12:52;19.10;;;8.15;;
75737;SDS011;64356;45.638;13.764;2022-10-22T12:15:27;20.40;;;7.78;;
75737;SDS011;64356;45.638;13.764;2022-10-22T12:18:00;16.23;;;7.38;;
75737;SDS011;64356;45.638;13.764;2022-10-22T12:20:29;15.70;;;6.72;;
75737;SDS011;64356;45.638;13.764;2022-10-22T12:22:59;20.02;;;7.15;;
75737;SDS011;64356;45.638;13.764;2022-10-22T12:25:28;21.30;;;7.50;;
75737;SDS011;64356;45.638;13.764;2022-10-22T12:27:56;18.67;;;7.32;;
75737;SDS011;64356;45.638;13.764;2022-10-22T12:30:30;20.17;;;7.53;;
75737;SDS011;64356;45.638;13.764;2022-10-22T12:32:59;19.88;;;8.38;;
75737;SDS011;64356;45.638;13.764;2022-10-22T12:35:27;17.15;;;7.30;;
75737;SDS011;64356;45.638;13.764;2022-10-22T12:37:56;21.58;;;7.65;;
75737;SDS011;64356;45.638;13.764;2022-10-22T12:40:25;19.38;;;7.80;;
75737;SDS011;64356;45.638;13.764;2022-10-22T12:42:53;20.05;;;6.68;;
75737;SDS011;64356;45.638;13.764;2022-10-22T12:45:28;26.55;;;7.75;;
75737;SDS011;64356;45.638;13.764;2022-10-22T12:48:01;24.63;;;7.30;;
75737;SDS011;64356;45.638;13.764;2022-10-22T12:50:33;22.67;;;7.25;;
75737;SDS011;64356;45.638;13.764;2022-10-22T12:53:04;21.42;;;7.72;;
75737;SDS011;64356;45.638;13.764;2022-10-22T12:55:36;19.00;;;7.43;;
75737;SDS011;64356;45.638;13.764;2022-10-22T12:58:04;17.58;;;7.30;;
75737;SDS011;64356;45.638;13.764;2022-10-22T13:00:31;19.05;;;6.47;;
75737;SDS011;64356;45.638;13.764;2022-10-22T13:02:59;17.90;;;7.15;;
75737;SDS011;64356;45.638;13.764;2022-10-22T13:05:31;37.08;;;8.80;;
75737;SDS011;64356;45.638;13.764;2022-10-22T13:08:08;27.67;;;7.57;;
75737;SDS011;64356;45.638;13.764;2022-10-22T13:10:36;19.88;;;7.95;;
75737;SDS011;64356;45.638;13.764;2022-10-22T13:13:04;27.23;;;7.80;;
75737;SDS011;64356;45.638;13.764;2022-10-22T13:20:59;19.45;;;7.75;;
75737;SDS011;64356;45.638;13.764;2022-10-22T13:23:27;21.48;;;7.32;;
75737;SDS011;64356;45.638;13.764;2022-10-22T13:28:33;22.20;;;7.63;;
75737;SDS011;64356;45.638;13.764;2022-10-22T13:30:59;22.55;;;7.10;;
75737;SDS011;64356;45.638;13.764;2022-10-22T13:33:33;26.05;;;7.30;;
75737;SDS011;64356;45.638;13.764;2022-10-22T13:36:01;17.67;;;6.90;;
75737;SDS011;64356;45.638;13.764;2022-10-22T13:38:27;15.55;;;7.13;;
75737;SDS011;64356;45.638;13.764;2022-10-22T13:40:53;21.65;;;7.28;;
75737;SDS011;64356;45.638;13.764;2022-10-22T13:43:19;23.13;;;6.15;;
75737;SDS011;64356;45.638;13.764;2022-10-22T13:45:46;20.30;;;7.28;;
75737;SDS011;64356;45.638;13.764;2022-10-22T13:48:16;14.75;;;6.88;;
75737;SDS011;64356;45.638;13.764;2022-10-22T13:50:46;17.35;;;6.32;;
75737;SDS011;64356;45.638;13.764;2022-10-22T13:53:16;21.05;;;7.22;;
75737;SDS011;64356;45.638;13.764;2022-10-22T13:55:46;13.98;;;6.75;;
75737;SDS011;64356;45.638;13.764;2022-10-22T13:58:14;23.70;;;6.68;;
75737;SDS011;64356;45.638;13.764;2022-10-22T14:00:42;19.17;;;6.30;;
75737;SDS011;64356;45.638;13.764;2022-10-22T14:03:11;14.90;;;6.40;;
75737;SDS011;64356;45.638;13.764;2022-10-22T14:05:40;13.07;;;6.70;;
75737;SDS011;64356;45.638;13.764;2022-10-22T14:08:14;14.35;;;6.25;;
75737;SDS011;64356;45.638;13.764;2022-10-22T14:10:42;17.88;;;6.72;;
75737;SDS011;64356;45.638;13.764;2022-10-22T14:13:11;18.05;;;7.07;;
75737;SDS011;64356;45.638;13.764;2022-10-22T14:15:39;14.00;;;6.53;;
75737;SDS011;64356;45.638;13.764;2022-10-22T14:18:06;26.60;;;7.20;;
75737;SDS011;64356;45.638;13.764;2022-10-22T14:20:36;15.55;;;6.78;;
75737;SDS011;64356;45.638;13.764;2022-10-22T14:23:11;10.75;;;5.90;;
75737;SDS011;64356;45.638;13.764;2022-10-22T14:25:39;18.38;;;7.38;;
75737;SDS011;64356;45.638;13.764;2022-10-22T14:28:05;17.70;;;6.72;;
75737;SDS011;64356;45.638;13.764;2022-10-22T14:30:32;15.52;;;7.22;;
75737;SDS011;64356;45.638;13.764;2022-10-22T14:32:58;17.35;;;6.97;;
75737;SDS011;64356;45.638;13.764;2022-10-22T14:35:24;17.23;;;6.32;;
75737;SDS011;64356;45.638;13.764;2022-10-22T14:37:49;12.82;;;6.47;;
75737;SDS011;64356;45.638;13.764;2022-10-22T14:40:16;16.75;;;6.63;;
75737;SDS011;64356;45.638;13.764;2022-10-22T14:42:47;13.93;;;6.13;;
75737;SDS011;64356;45.638;13.764;2022-10-22T14:45:20;17.20;;;7.60;;
75737;SDS011;64356;45.638;13.764;2022-10-22T14:47:48;15.05;;;6.25;;
75737;SDS011;64356;45.638;13.764;2022-10-22T14:50:15;15.88;;;7.22;;
75737;SDS011;64356;45.638;13.764;2022-10-22T14:52:41;13.90;;;6.60;;
75737;SDS011;64356;45.638;13.764;2022-10-22T14:55:08;16.98;;;6.88;;
75737;SDS011;64356;45.638;13.764;2022-10-22T14:57:35;16.90;;;6.60;;
75737;SDS011;64356;45.638;13.764;2022-10-22T15:00:03;19.52;;;7.60;;
75737;SDS011;64356;45.638;13.764;2022-10-22T15:02:34;15.30;;;6.53;;
75737;SDS011;64356;45.638;13.764;2022-10-22T15:04:59;13.07;;;6.75;;
75737;SDS011;64356;45.638;13.764;2022-10-22T15:07:25;19.08;;;7.70;;
75737;SDS011;64356;45.638;13.764;2022-10-22T15:09:51;17.88;;;6.93;;
75737;SDS011;64356;45.638;13.764;2022-10-22T15:12:20;24.00;;;7.53;;
75737;SDS011;64356;45.638;13.764;2022-10-22T15:14:46;15.77;;;7.78;;
75737;SDS011;64356;45.638;13.764;2022-10-22T15:17:12;21.90;;;7.53;;
75737;SDS011;64356;45.638;13.764;2022-10-22T15:19:38;13.65;;;6.65;;
75737;SDS011;64356;45.638;13.764;2022-10-22T15:22:03;21.10;;;8.07;;
75737;SDS011;64356;45.638;13.764;2022-10-22T15:24:30;16.92;;;7.35;;
75737;SDS011;64356;45.638;13.764;2022-10-22T15:26:56;18.88;;;6.85;;
75737;SDS011;64356;45.638;13.764;2022-10-22T15:29:22;25.40;;;6.18;;
75737;SDS011;64356;45.638;13.764;2022-10-22T15:31:49;20.63;;;6.75;;
75737;SDS011;64356;45.638;13.764;2022-10-22T15:34:23;14.20;;;6.85;;
75737;SDS011;64356;45.638;13.764;2022-10-22T15:36:52;17.13;;;7.00;;
75737;SDS011;64356;45.638;13.764;2022-10-22T15:39:22;14.18;;;6.50;;
75737;SDS011;64356;45.638;13.764;2022-10-22T15:41:48;17.75;;;6.75;;
75737;SDS011;64356;45.638;13.764;2022-10-22T15:44:22;17.30;;;6.57;;
75737;SDS011;64356;45.638;13.764;2022-10-22T15:46:49;16.00;;;6.85;;
75737;SDS011;64356;45.638;13.764;2022-10-22T15:49:15;12.02;;;7.03;;
75737;SDS011;64356;45.638;13.764;2022-10-22T15:51:42;14.05;;;6.93;;
75737;SDS011;64356;45.638;13.764;2022-10-22T15:54:11;14.10;;;6.93;;
75737;SDS011;64356;45.638;13.764;2022-10-22T15:56:42;19.83;;;6.97;;
75737;SDS011;64356;45.638;13.764;2022-10-22T15:59:09;15.80;;;7.53;;
75737;SDS011;64356;45.638;13.764;2022-10-22T16:01:35;15.18;;;6.50;;
75737;SDS011;64356;45.638;13.764;2022-10-22T16:04:02;17.90;;;6.70;;
75737;SDS011;64356;45.638;13.764;2022-10-22T16:06:29;21.08;;;7.07;;
75737;SDS011;64356;45.638;13.764;2022-10-22T16:08:58;22.58;;;7.78;;
75737;SDS011;64356;45.638;13.764;2022-10-22T16:11:26;13.57;;;6.82;;
75737;SDS011;64356;45.638;13.764;2022-10-22T16:13:53;16.38;;;7.35;;
75737;SDS011;64356;45.638;13.764;2022-10-22T16:16:20;12.85;;;6.90;;
75737;SDS011;64356;45.638;13.764;2022-10-22T16:18:47;16.98;;;7.28;;
75737;SDS011;64356;45.638;13.764;2022-10-22T16:21:13;15.50;;;6.78;;
75737;SDS011;64356;45.638;13.764;2022-10-22T16:23:40;16.00;;;7.65;;
75737;SDS011;64356;45.638;13.764;2022-10-22T16:26:06;18.73;;;6.88;;